Time;durP1;ratioP1;P1;durP2;ratioP2;P2;SDS_P1;SDS_P2;PMS_P1;PMS_P2;Temp;Humidity;BMP_temperature;BMP_pressure;BME280_temperature;BME280_humidity;BME280_pressure;Samples;Min_cycle;Max_cycle;Signal;HPM_P1;HPM_P2
2023/10/24 00:01:41;;;;;;;15.90;10.18;;;11.80;99.90;;;;;;4996905;28;20045;-77
2023/10/24 00:04:08;;;;;;;12.88;10.07;;;11.80;99.90;;;;;;4996071;28;20042;-76
2023/10/24 00:06:34;;;;;;;14.10;10.38;;;11.80;99.90;;;;;;5005149;28;20092;-77
2023/10/24 00:09:04;;;;;;;15.43;10.25;;;11.80;99.90;;;;;;5007423;28;20093;-77
2023/10/24 00:11:32;;;;;;;12.43;9.00;;;11.80;99.90;;;;;;5009637;28;20125;-76
2023/10/24 00:13:59;;;;;;;13.50;9.43;;;11.80;99.90;;;;;;5002951;28;20046;-76
2023/10/24 00:16:26;;;;;;;11.73;8.40;;;11.80;99.90;;;;;;5005268;28;20051;-77
2023/10/24 00:18:53;;;;;;;14.35;9.38;;;11.80;99.90;;;;;;4997780;28;20054;-76
2023/10/24 00:21:20;;;;;;;14.75;8.68;;;11.80;99.90;;;;;;5005220;28;20058;-77
2023/10/24 00:23:46;;;;;;;10.68;8.80;;;11.80;99.90;;;;;;4995037;28;20200;-77
2023/10/24 00:26:13;;;;;;;12.60;9.00;;;11.80;99.90;;;;;;5008068;28;20086;-77
2023/10/24 00:28:40;;;;;;;14.02;9.05;;;11.80;99.90;;;;;;5004182;28;20084;-77
2023/10/24 00:31:07;;;;;;;10.73;8.48;;;11.80;99.90;;;;;;5004385;28;20039;-76
2023/10/24 00:33:34;;;;;;;12.13;9.35;;;11.80;99.90;;;;;;4997137;28;20046;-77
2023/10/24 00:36:01;;;;;;;12.90;9.48;;;11.80;99.90;;;;;;5003039;28;20078;-77
2023/10/24 00:38:28;;;;;;;11.98;9.10;;;11.80;99.90;;;;;;5009834;28;20045;-77
2023/10/24 00:40:55;;;;;;;12.15;8.48;;;11.80;99.90;;;;;;5005701;28;20046;-77
2023/10/24 00:43:21;;;;;;;14.48;9.40;;;11.80;99.90;;;;;;5002756;28;20092;-77
2023/10/24 00:45:48;;;;;;;12.23;8.85;;;11.90;99.90;;;;;;5005717;28;20088;-77
2023/10/24 00:48:15;;;;;;;12.73;8.73;;;11.90;99.90;;;;;;4996168;28;20101;-76
2023/10/24 00:50:42;;;;;;;13.10;8.65;;;11.80;99.90;;;;;;5009055;28;20041;-76
2023/10/24 00:53:09;;;;;;;18.33;9.55;;;11.90;99.90;;;;;;5007344;28;20077;-77
2023/10/24 00:55:38;;;;;;;14.10;8.85;;;11.80;99.90;;;;;;5008406;28;20047;-76
2023/10/24 00:58:07;;;;;;;10.70;7.78;;;11.80;99.90;;;;;;5003818;28;20498;-76
2023/10/24 01:00:34;;;;;;;14.65;7.72;;;11.80;99.90;;;;;;5009877;28;20097;-76
2023/10/24 01:03:02;;;;;;;10.50;6.72;;;11.80;99.90;;;;;;4998997;28;20043;-77
2023/10/24 01:05:30;;;;;;;11.15;6.40;;;11.80;99.90;;;;;;5012523;28;20049;-77
2023/10/24 01:07:57;;;;;;;10.70;7.63;;;11.80;99.90;;;;;;5010526;28;20045;-77
2023/10/24 01:10:24;;;;;;;11.57;7.82;;;11.80;99.90;;;;;;5009340;28;20565;-77
2023/10/24 01:12:51;;;;;;;8.73;7.30;;;11.80;99.90;;;;;;5004118;28;20129;-76
2023/10/24 01:15:17;;;;;;;10.93;7.18;;;11.80;99.90;;;;;;5007475;28;20045;-77
2023/10/24 01:17:52;;;;;;;8.68;6.80;;;11.80;99.90;;;;;;5004007;28;20077;-77
2023/10/24 01:20:19;;;;;;;8.70;6.72;;;11.80;99.90;;;;;;4994152;28;20069;-77
2023/10/24 01:22:47;;;;;;;9.10;6.38;;;11.80;99.90;;;;;;5011206;28;20049;-77
2023/10/24 01:25:14;;;;;;;14.65;7.47;;;11.80;99.90;;;;;;5010564;28;20425;-77
2023/10/24 01:27:42;;;;;;;13.48;7.28;;;11.80;99.90;;;;;;5006084;28;20048;-77
2023/10/24 01:30:11;;;;;;;10.65;6.40;;;11.80;99.90;;;;;;5007467;28;20039;-77
2023/10/24 01:32:38;;;;;;;10.23;7.10;;;11.80;99.90;;;;;;4999409;28;20046;-76
2023/10/24 01:35:06;;;;;;;12.95;7.28;;;11.80;99.90;;;;;;5008603;28;20052;-76
2023/10/24 01:37:32;;;;;;;9.98;6.22;;;11.80;99.90;;;;;;4992338;28;20054;-76
2023/10/24 01:39:59;;;;;;;14.30;6.50;;;11.80;99.90;;;;;;5008919;28;20133;-76
2023/10/24 01:42:26;;;;;;;11.98;5.03;;;11.80;99.90;;;;;;5002216;28;20074;-77
2023/10/24 01:44:53;;;;;;;10.45;6.00;;;11.80;99.90;;;;;;5005884;28;20046;-77
2023/10/24 01:47:19;;;;;;;11.32;4.47;;;11.80;99.90;;;;;;5000411;28;20081;-77
2023/10/24 01:49:46;;;;;;;7.95;4.55;;;11.80;99.90;;;;;;5012118;28;20080;-76
2023/10/24 01:52:13;;;;;;;5.78;3.58;;;11.80;99.90;;;;;;5007170;28;20054;-77
2023/10/24 01:54:40;;;;;;;7.57;3.67;;;11.90;99.90;;;;;;5010181;28;20053;-76
2023/10/24 01:57:07;;;;;;;11.20;5.30;;;11.90;99.90;;;;;;5000439;28;20042;-76
2023/10/24 01:59:33;;;;;;;5.85;4.22;;;11.90;99.90;;;;;;5008359;28;20096;-76
2023/10/24 02:02:00;;;;;;;10.73;3.88;;;11.90;99.90;;;;;;4998770;28;20455;-76
2023/10/24 02:04:27;;;;;;;5.85;2.70;;;11.90;99.90;;;;;;5009670;28;20076;-76
2023/10/24 02:06:54;;;;;;;5.55;2.20;;;11.90;99.90;;;;;;5007579;28;20173;-76
2023/10/24 02:09:21;;;;;;;4.18;2.78;;;11.90;99.90;;;;;;5004785;28;20097;-76
2023/10/24 02:11:48;;;;;;;5.03;3.15;;;12.00;99.90;;;;;;4996759;28;20054;-76
2023/10/24 02:14:14;;;;;;;7.30;2.92;;;12.00;99.90;;;;;;5006508;28;20137;-76
2023/10/24 02:16:41;;;;;;;8.05;2.97;;;12.00;99.90;;;;;;5002655;28;20105;-76
2023/10/24 02:19:08;;;;;;;8.15;2.65;;;12.10;99.90;;;;;;4998995;28;20069;-76
2023/10/24 02:21:35;;;;;;;5.57;2.08;;;12.10;99.90;;;;;;5007324;28;20081;-75
2023/10/24 02:24:02;;;;;;;9.18;2.08;;;12.10;99.90;;;;;;5007213;28;20096;-76
2023/10/24 02:26:29;;;;;;;5.60;1.88;;;12.10;99.90;;;;;;5001380;28;20082;-76
2023/10/24 02:28:57;;;;;;;2.65;1.70;;;12.20;99.90;;;;;;4994958;28;20048;-76
2023/10/24 02:31:23;;;;;;;5.20;1.73;;;12.20;99.90;;;;;;5006041;28;20050;-76
2023/10/24 02:33:50;;;;;;;5.70;1.95;;;12.20;99.90;;;;;;5012099;28;20045;-76
2023/10/24 02:36:17;;;;;;;5.45;1.52;;;12.20;99.90;;;;;;5005070;28;20137;-76
2023/10/24 02:38:44;;;;;;;5.18;1.33;;;12.20;99.90;;;;;;5008778;28;20053;-76
2023/10/24 02:41:10;;;;;;;3.47;1.50;;;12.30;99.90;;;;;;4999202;28;20054;-76
2023/10/24 02:43:37;;;;;;;2.63;1.27;;;12.30;99.90;;;;;;5003142;28;20104;-75
2023/10/24 02:46:05;;;;;;;3.60;1.20;;;12.30;99.90;;;;;;5008611;28;20041;-76
2023/10/24 02:48:32;;;;;;;3.75;1.00;;;12.40;99.90;;;;;;4996376;28;20518;-75
2023/10/24 02:50:59;;;;;;;2.08;0.93;;;12.40;99.90;;;;;;5004608;28;20557;-76
2023/10/24 02:53:26;;;;;;;2.28;0.75;;;12.40;99.90;;;;;;4987819;28;20129;-76
2023/10/24 02:55:53;;;;;;;2.92;0.93;;;12.50;99.90;;;;;;5000295;28;20082;-76
2023/10/24 02:58:20;;;;;;;5.40;1.00;;;12.50;99.90;;;;;;5000707;28;20698;-76
2023/10/24 03:00:47;;;;;;;4.57;0.80;;;12.50;99.90;;;;;;5008229;28;20057;-76
2023/10/24 03:03:14;;;;;;;2.38;0.93;;;12.50;99.90;;;;;;5009531;28;20129;-76
2023/10/24 03:05:40;;;;;;;3.60;0.88;;;12.60;99.90;;;;;;5005400;28;20085;-76
2023/10/24 03:08:07;;;;;;;4.40;1.00;;;12.60;99.90;;;;;;5002777;28;20493;-76
2023/10/24 03:10:41;;;;;;;1.33;0.85;;;12.60;99.90;;;;;;5002116;28;20042;-76
2023/10/24 03:13:08;;;;;;;3.60;1.08;;;12.60;99.90;;;;;;4993552;28;20073;-76
2023/10/24 03:15:35;;;;;;;3.30;1.10;;;12.70;99.90;;;;;;5010031;28;20054;-76
2023/10/24 03:18:02;;;;;;;4.45;1.17;;;12.70;99.90;;;;;;5009778;28;20077;-75
2023/10/24 03:20:29;;;;;;;4.28;1.52;;;12.70;99.90;;;;;;5001389;28;20104;-76
2023/10/24 03:22:56;;;;;;;5.00;1.50;;;12.70;99.90;;;;;;5006607;28;20137;-75
2023/10/24 03:25:27;;;;;;;2.67;1.45;;;12.70;99.90;;;;;;4999943;28;20084;-76
2023/10/24 03:27:54;;;;;;;2.95;0.90;;;12.70;99.90;;;;;;5005547;28;20543;-75
2023/10/24 03:30:21;;;;;;;1.73;1.30;;;12.70;99.90;;;;;;5007527;28;20129;-75
2023/10/24 03:32:48;;;;;;;1.85;1.08;;;12.70;99.90;;;;;;5010126;28;20097;-75
2023/10/24 03:35:15;;;;;;;1.80;1.17;;;12.70;99.90;;;;;;5005892;28;20120;-75
2023/10/24 03:37:42;;;;;;;5.20;1.35;;;12.70;99.90;;;;;;5005067;28;20132;-75
2023/10/24 03:40:09;;;;;;;11.73;1.35;;;12.70;99.90;;;;;;5000077;28;20054;-75
2023/10/24 03:42:37;;;;;;;5.15;1.33;;;12.70;99.90;;;;;;4996412;28;20082;-76
2023/10/24 03:45:05;;;;;;;2.47;1.60;;;12.70;99.90;;;;;;5007966;28;20545;-76
2023/10/24 03:47:31;;;;;;;3.40;1.50;;;12.70;99.90;;;;;;5004880;28;20117;-76
2023/10/24 03:49:58;;;;;;;5.07;1.52;;;12.70;99.90;;;;;;5002953;28;20052;-76
2023/10/24 03:52:25;;;;;;;2.90;1.10;;;12.70;99.90;;;;;;5002119;28;20065;-76
2023/10/24 03:54:52;;;;;;;3.15;1.10;;;12.80;99.90;;;;;;5001229;28;20041;-76
2023/10/24 03:57:19;;;;;;;5.85;1.60;;;12.80;99.90;;;;;;4999701;28;20047;-76
2023/10/24 03:59:46;;;;;;;6.68;1.35;;;12.70;99.90;;;;;;5008703;28;20050;-76
2023/10/24 04:02:13;;;;;;;5.30;1.45;;;12.80;99.90;;;;;;5005503;28;20269;-76
2023/10/24 04:04:39;;;;;;;3.75;1.30;;;12.80;99.90;;;;;;5001452;28;20502;-76
2023/10/24 04:07:07;;;;;;;5.97;1.67;;;12.80;99.90;;;;;;4993674;28;20257;-76
2023/10/24 04:09:34;;;;;;;5.85;1.50;;;12.80;99.90;;;;;;4999417;28;20485;-75
2023/10/24 04:12:05;;;;;;;2.83;1.13;;;12.80;99.90;;;;;;5006483;28;20144;-76
2023/10/24 04:14:32;;;;;;;8.23;1.92;;;12.80;99.90;;;;;;5005030;28;20430;-76
2023/10/24 04:16:59;;;;;;;4.90;1.55;;;12.80;99.90;;;;;;5006128;28;20052;-76
2023/10/24 04:19:26;;;;;;;5.07;1.98;;;12.80;99.90;;;;;;5000045;28;20046;-76
2023/10/24 04:21:53;;;;;;;3.53;1.50;;;12.80;99.90;;;;;;5000276;28;20049;-76
2023/10/24 04:24:20;;;;;;;2.40;1.15;;;12.80;99.90;;;;;;5000590;28;20046;-76
2023/10/24 04:26:47;;;;;;;3.30;1.13;;;12.80;99.90;;;;;;4995667;28;20054;-76
2023/10/24 04:29:14;;;;;;;4.35;1.88;;;12.80;99.90;;;;;;5004735;28;20100;-76
2023/10/24 04:31:41;;;;;;;3.67;1.70;;;12.80;99.90;;;;;;5007664;28;20096;-76
2023/10/24 04:34:08;;;;;;;2.45;1.13;;;12.80;99.90;;;;;;4987913;28;20050;-76
2023/10/24 04:36:34;;;;;;;2.60;0.95;;;12.80;99.90;;;;;;5004741;28;20050;-75
2023/10/24 04:39:01;;;;;;;3.42;0.90;;;12.80;99.90;;;;;;5009049;28;20056;-76
2023/10/24 04:41:28;;;;;;;3.50;1.20;;;12.80;99.90;;;;;;4996597;28;20134;-76
2023/10/24 04:43:55;;;;;;;1.65;0.95;;;12.80;99.90;;;;;;4993593;28;20139;-76
2023/10/24 04:46:22;;;;;;;1.42;0.70;;;12.90;99.90;;;;;;5007132;28;20234;-76
2023/10/24 04:48:48;;;;;;;2.00;0.70;;;12.80;99.90;;;;;;5006942;28;20058;-76
2023/10/24 04:51:15;;;;;;;2.75;0.93;;;12.90;99.90;;;;;;4997327;28;20042;-76
2023/10/24 04:53:42;;;;;;;2.13;0.98;;;12.90;99.90;;;;;;5007205;28;20498;-76
2023/10/24 04:56:09;;;;;;;1.52;0.98;;;12.90;99.90;;;;;;5014072;28;20456;-77
2023/10/24 04:58:36;;;;;;;4.97;1.42;;;12.90;99.90;;;;;;5006182;28;20050;-77
2023/10/24 05:01:03;;;;;;;4.13;1.58;;;12.90;99.90;;;;;;5007600;28;20077;-77
2023/10/24 05:03:34;;;;;;;2.80;1.55;;;12.90;99.90;;;;;;5004675;28;20081;-77
2023/10/24 05:06:01;;;;;;;3.30;1.77;;;12.90;99.90;;;;;;5002224;28;20050;-77
2023/10/24 05:08:28;;;;;;;3.55;1.80;;;12.90;99.90;;;;;;4997121;28;20046;-77
2023/10/24 05:10:55;;;;;;;4.90;1.90;;;12.90;99.90;;;;;;5013973;28;20132;-77
2023/10/24 05:13:21;;;;;;;3.67;2.22;;;12.90;99.90;;;;;;5005812;28;20050;-77
2023/10/24 05:15:48;;;;;;;5.65;1.90;;;13.00;99.90;;;;;;5006247;28;20046;-76
2023/10/24 05:18:15;;;;;;;3.83;2.10;;;13.00;99.90;;;;;;4988210;28;20050;-77
2023/10/24 05:20:42;;;;;;;10.38;5.28;;;13.00;99.90;;;;;;4998325;28;20475;-77
2023/10/24 05:23:09;;;;;;;14.45;8.65;;;13.00;99.90;;;;;;5012804;28;20038;-76
2023/10/24 05:25:36;;;;;;;7.47;4.68;;;12.90;99.90;;;;;;5009846;28;20196;-77
2023/10/24 05:28:03;;;;;;;5.72;3.83;;;12.90;99.90;;;;;;5009382;28;20045;-77
2023/10/24 05:30:30;;;;;;;11.98;6.82;;;13.00;99.90;;;;;;5002247;28;20104;-76
2023/10/24 05:32:58;;;;;;;10.75;7.15;;;13.00;99.90;;;;;;5007351;28;20320;-77
2023/10/24 05:35:25;;;;;;;11.32;6.47;;;12.90;99.90;;;;;;4995842;28;20391;-77
2023/10/24 05:37:52;;;;;;;5.47;4.93;;;13.00;99.90;;;;;;5013528;28;20128;-77
2023/10/24 05:40:18;;;;;;;7.78;3.92;;;13.00;99.90;;;;;;5008243;28;20088;-77
2023/10/24 05:42:45;;;;;;;5.32;3.38;;;13.00;99.90;;;;;;5007650;28;20055;-77
2023/10/24 05:45:12;;;;;;;10.70;6.35;;;13.00;99.90;;;;;;4984014;28;20058;-77
2023/10/24 05:47:39;;;;;;;6.53;5.13;;;13.00;99.90;;;;;;5005536;28;20128;-77
2023/10/24 05:50:06;;;;;;;5.85;4.18;;;13.00;99.90;;;;;;5000071;28;20548;-77
2023/10/24 05:52:33;;;;;;;8.20;4.10;;;13.00;99.90;;;;;;5007909;28;20578;-77
2023/10/24 05:54:59;;;;;;;6.97;2.80;;;13.00;99.90;;;;;;5011504;28;20537;-77
2023/10/24 05:57:28;;;;;;;10.18;5.53;;;13.00;99.90;;;;;;5005101;28;20418;-77
2023/10/24 05:59:55;;;;;;;9.45;4.47;;;13.00;99.90;;;;;;5003883;28;20461;-77
2023/10/24 06:02:22;;;;;;;9.95;5.28;;;13.00;99.90;;;;;;5005925;28;20112;-77
2023/10/24 06:04:49;;;;;;;7.57;4.60;;;13.00;99.90;;;;;;5001343;28;20046;-77
2023/10/24 06:07:15;;;;;;;11.95;6.80;;;13.00;99.90;;;;;;5011596;28;20053;-77
2023/10/24 06:09:43;;;;;;;7.43;4.68;;;13.00;99.90;;;;;;5007438;28;20061;-77
2023/10/24 06:12:09;;;;;;;11.27;6.45;;;12.90;99.90;;;;;;5008199;28;20095;-77
2023/10/24 06:14:36;;;;;;;10.27;6.40;;;13.00;99.90;;;;;;4999609;28;20112;-77
2023/10/24 06:17:03;;;;;;;6.25;4.82;;;13.00;99.90;;;;;;5007594;28;20045;-77
2023/10/24 06:19:30;;;;;;;6.90;4.68;;;12.90;99.90;;;;;;5003562;28;20077;-77
2023/10/24 06:21:56;;;;;;;7.68;5.38;;;13.00;99.90;;;;;;5012534;28;20129;-77
2023/10/24 06:24:23;;;;;;;6.22;4.88;;;12.90;99.90;;;;;;5005573;28;20125;-77
2023/10/24 06:26:50;;;;;;;9.63;5.00;;;13.00;99.90;;;;;;5007622;28;20089;-76
2023/10/24 06:29:17;;;;;;;13.43;6.60;;;13.00;99.90;;;;;;4998753;28;20141;-77
2023/10/24 06:31:43;;;;;;;18.88;12.38;;;13.00;99.90;;;;;;5007711;28;20081;-77
2023/10/24 06:34:10;;;;;;;9.55;7.35;;;12.90;99.90;;;;;;5004958;28;20060;-77
2023/10/24 06:36:37;;;;;;;10.00;4.93;;;12.90;99.90;;;;;;5010567;28;20054;-77
2023/10/24 06:39:04;;;;;;;9.35;5.93;;;13.00;99.90;;;;;;5006555;28;20085;-77
2023/10/24 06:41:31;;;;;;;3.78;1.95;;;12.90;99.90;;;;;;5006216;28;20050;-77
2023/10/24 06:43:58;;;;;;;5.70;1.38;;;12.90;99.90;;;;;;4999531;28;20050;-77
2023/10/24 06:46:25;;;;;;;2.20;1.20;;;13.00;99.90;;;;;;5004476;28;20272;-77
2023/10/24 06:48:52;;;;;;;3.08;1.85;;;13.00;99.90;;;;;;5005328;28;20045;-77
2023/10/24 06:51:19;;;;;;;4.97;1.45;;;13.00;99.90;;;;;;5010690;28;20488;-77
2023/10/24 06:53:46;;;;;;;4.60;1.45;;;13.00;99.90;;;;;;5003335;28;20057;-77
2023/10/24 06:56:12;;;;;;;4.40;1.63;;;13.00;99.90;;;;;;4996654;28;20701;-77
2023/10/24 06:58:40;;;;;;;2.88;1.52;;;13.00;99.90;;;;;;4998308;28;20047;-77
2023/10/24 07:01:07;;;;;;;3.28;1.17;;;13.00;99.90;;;;;;5002906;28;20045;-77
2023/10/24 07:03:34;;;;;;;6.05;2.67;;;13.00;99.90;;;;;;5008879;28;20047;-77
2023/10/24 07:06:01;;;;;;;4.45;2.72;;;13.00;99.90;;;;;;5010761;28;20046;-77
2023/10/24 07:08:28;;;;;;;2.80;1.35;;;13.00;99.90;;;;;;5001601;28;20047;-77
2023/10/24 07:10:54;;;;;;;2.13;1.00;;;13.10;99.90;;;;;;5007055;28;20568;-77
2023/10/24 07:13:21;;;;;;;4.88;1.17;;;13.10;99.90;;;;;;5003666;28;20046;-77
2023/10/24 07:15:48;;;;;;;2.88;1.73;;;13.10;99.90;;;;;;5005378;28;20421;-76
2023/10/24 07:18:15;;;;;;;2.75;1.58;;;13.00;99.90;;;;;;5010619;28;20153;-77
2023/10/24 07:20:43;;;;;;;3.72;1.88;;;13.10;99.90;;;;;;5007811;28;20054;-77
2023/10/24 07:23:09;;;;;;;3.78;2.00;;;13.10;99.90;;;;;;4996717;28;20107;-77
2023/10/24 07:25:36;;;;;;;2.65;1.80;;;13.10;99.90;;;;;;5005885;28;20081;-77
2023/10/24 07:28:05;;;;;;;2.55;1.70;;;13.10;99.90;;;;;;4999337;28;20051;-77
2023/10/24 07:30:32;;;;;;;6.15;1.50;;;13.10;99.90;;;;;;5005746;28;20081;-77
2023/10/24 07:32:59;;;;;;;3.70;2.63;;;13.10;99.90;;;;;;5009949;28;20085;-77
2023/10/24 07:35:26;;;;;;;2.90;1.83;;;13.10;99.90;;;;;;5008292;28;20049;-77
2023/10/24 07:37:53;;;;;;;4.50;2.10;;;13.10;99.90;;;;;;5002141;28;20096;-77
2023/10/24 07:40:20;;;;;;;5.85;2.70;;;13.10;99.90;;;;;;5004579;28;20425;-77
2023/10/24 07:42:47;;;;;;;2.13;1.30;;;13.10;99.90;;;;;;4998631;28;20054;-77
2023/10/24 07:45:14;;;;;;;3.25;1.65;;;13.10;99.90;;;;;;5005261;28;20049;-77
2023/10/24 07:47:41;;;;;;;3.95;2.17;;;13.10;99.90;;;;;;5007380;28;20414;-77
2023/10/24 07:50:09;;;;;;;3.47;1.70;;;13.10;99.90;;;;;;4992161;28;20042;-77
2023/10/24 07:52:36;;;;;;;2.47;1.50;;;13.20;99.90;;;;;;4999496;28;20495;-77
2023/10/24 07:55:03;;;;;;;2.90;1.35;;;13.20;99.90;;;;;;5004558;28;20501;-77
2023/10/24 07:57:30;;;;;;;4.38;1.30;;;13.20;99.90;;;;;;4998395;28;20038;-77
2023/10/24 07:59:58;;;;;;;2.63;1.25;;;13.20;99.90;;;;;;5002067;28;20046;-76
2023/10/24 08:02:25;;;;;;;4.10;1.20;;;13.20;99.90;;;;;;4987865;28;20540;-76
2023/10/24 08:04:51;;;;;;;2.72;1.45;;;13.20;99.90;;;;;;4994219;28;20046;-77
2023/10/24 08:07:18;;;;;;;4.63;2.65;;;13.20;99.90;;;;;;5004410;28;20046;-77
2023/10/24 08:09:45;;;;;;;2.95;2.00;;;13.20;99.90;;;;;;5005923;28;20213;-77
2023/10/24 08:12:12;;;;;;;3.47;1.50;;;13.20;99.90;;;;;;5002466;28;20841;-76
2023/10/24 08:14:39;;;;;;;3.08;1.10;;;13.20;99.90;;;;;;5006940;28;20043;-77
2023/10/24 08:17:06;;;;;;;2.45;0.80;;;13.20;99.90;;;;;;5000715;28;20121;-77
2023/10/24 08:19:33;;;;;;;3.58;1.38;;;13.30;99.90;;;;;;5009302;28;20046;-77
2023/10/24 08:22:00;;;;;;;2.13;1.67;;;13.30;99.90;;;;;;5005347;28;20082;-77
2023/10/24 08:24:27;;;;;;;2.80;1.30;;;13.30;99.90;;;;;;5009295;28;20049;-76
2023/10/24 08:26:53;;;;;;;2.30;1.48;;;13.30;99.90;;;;;;4995660;28;20125;-77
2023/10/24 08:29:37;;;;;;;3.38;2.25;;;13.30;99.90;;;;;;5010134;28;20057;-77
2023/10/24 08:32:04;;;;;;;3.53;3.22;;;13.30;99.90;;;;;;5010514;28;20044;-76
2023/10/24 08:34:38;;;;;;;4.45;2.97;;;13.30;99.90;;;;;;5009900;28;20046;-77
2023/10/24 08:37:06;;;;;;;2.60;1.73;;;13.30;99.90;;;;;;5004153;28;20042;-77
2023/10/24 08:39:32;;;;;;;4.45;1.40;;;13.30;99.90;;;;;;4997396;28;20096;-77
2023/10/24 08:41:59;;;;;;;2.30;1.25;;;13.30;99.90;;;;;;5003433;28;20177;-77
2023/10/24 08:44:26;;;;;;;3.50;1.20;;;13.30;99.90;;;;;;5014501;28;20123;-76
2023/10/24 08:46:54;;;;;;;2.95;1.45;;;13.30;99.90;;;;;;5007365;28;20046;-77
2023/10/24 08:49:21;;;;;;;4.57;1.17;;;13.30;99.90;;;;;;5010762;28;20503;-77
2023/10/24 08:51:48;;;;;;;2.10;1.10;;;13.30;99.90;;;;;;4996579;28;20446;-77
2023/10/24 08:54:15;;;;;;;2.53;1.08;;;13.40;99.90;;;;;;5006857;28;20045;-77
2023/10/24 08:56:42;;;;;;;2.75;1.10;;;13.30;99.90;;;;;;5007767;28;20050;-77
2023/10/24 08:59:09;;;;;;;2.47;0.82;;;13.30;99.90;;;;;;5014060;28;20152;-76
2023/10/24 09:01:42;;;;;;;2.65;1.30;;;13.30;99.90;;;;;;5005974;28;20077;-76
2023/10/24 09:04:09;;;;;;;1.92;0.70;;;13.30;99.90;;;;;;5009498;28;20074;-77
2023/10/24 09:06:37;;;;;;;3.33;1.00;;;13.40;99.90;;;;;;5001791;28;20093;-77
2023/10/24 09:09:04;;;;;;;3.05;0.88;;;13.30;99.90;;;;;;4987643;28;20530;-76
2023/10/24 09:11:53;;;;;;;3.40;1.58;;;13.40;99.90;;;;;;5010083;28;20049;-77
2023/10/24 09:14:20;;;;;;;1.15;0.55;;;13.30;99.90;;;;;;5011854;28;20099;-76
2023/10/24 09:16:55;;;;;;;1.65;0.80;;;13.40;99.90;;;;;;4996891;28;20073;-77
2023/10/24 09:19:22;;;;;;;2.25;0.70;;;13.40;99.90;;;;;;4991012;28;20049;-77
2023/10/24 09:21:50;;;;;;;2.67;1.00;;;13.40;99.90;;;;;;4995175;28;20050;-77
2023/10/24 09:24:32;;;;;;;1.73;1.05;;;13.40;99.90;;;;;;5004790;28;20607;-76
2023/10/24 09:27:01;;;;;;;1.50;0.80;;;13.40;99.90;;;;;;5010332;28;20524;-77
2023/10/24 09:29:31;;;;;;;2.25;0.60;;;13.40;99.90;;;;;;5033649;23;20133;-80
2023/10/24 09:31:58;;;;;;;4.13;1.17;;;13.40;99.90;;;;;;5006433;28;20472;-81
2023/10/24 09:34:27;;;;;;;3.50;0.90;;;13.40;99.90;;;;;;5012124;28;20042;-82
2023/10/24 09:37:06;;;;;;;1.25;0.60;;;13.40;99.90;;;;;;5010566;28;20065;-79
2023/10/24 09:39:56;;;;;;;2.53;0.80;;;13.40;99.90;;;;;;5010768;28;20046;-80
2023/10/24 09:42:24;;;;;;;;;;;13.40;99.90;;;;;;5018720;28;20042;-80
2023/10/24 09:44:58;;;;;;;2.72;0.70;;;13.40;99.90;;;;;;5007799;28;19921;-80
2023/10/24 09:47:28;;;;;;;1.25;0.75;;;13.40;99.90;;;;;;5008977;28;20042;-81
2023/10/24 09:49:56;;;;;;;;;;;13.40;99.90;;;;;;5009777;28;20049;-80
2023/10/24 09:52:26;;;;;;;2.55;0.98;;;13.40;99.90;;;;;;5006214;28;20416;-80
2023/10/24 09:54:53;;;;;;;4.88;1.48;;;13.40;99.90;;;;;;5013445;28;20046;-80
2023/10/24 09:57:23;;;;;;;1.27;0.75;;;13.40;99.90;;;;;;5014677;28;20452;-81
2023/10/24 09:59:57;;;;;;;2.08;0.60;;;13.40;99.90;;;;;;5004307;28;20105;-79
2023/10/24 10:02:24;;;;;;;1.10;0.88;;;13.40;99.90;;;;;;5008725;28;20046;-81
2023/10/24 10:04:52;;;;;;;2.08;0.80;;;13.40;99.90;;;;;;5009055;28;20043;-81
2023/10/24 10:07:22;;;;;;;2.67;1.35;;;13.50;99.90;;;;;;5005041;28;20157;-81
2023/10/24 10:09:53;;;;;;;3.05;1.40;;;13.50;99.90;;;;;;5010919;28;20052;-80
2023/10/24 10:12:20;;;;;;;1.80;1.10;;;13.50;99.90;;;;;;5013346;28;20042;-81
2023/10/24 10:15:17;;;;;;;1.70;1.00;;;13.50;99.90;;;;;;5004205;28;20043;-79
2023/10/24 10:18:16;;;;;;;3.03;0.85;;;13.50;99.90;;;;;;5014519;28;20054;-80
2023/10/24 10:21:05;;;;;;;3.80;0.80;;;13.60;99.90;;;;;;4996402;28;20050;-81
2023/10/24 10:24:19;;;;;;;4.10;0.95;;;13.60;99.90;;;;;;5007701;28;20049;-81
2023/10/24 10:26:57;;;;;;;1.17;0.90;;;13.60;99.90;;;;;;4968015;28;20050;-81
2023/10/24 10:29:55;;;;;;;1.27;0.60;;;13.60;99.90;;;;;;5007623;28;20045;-81
2023/10/24 10:33:09;;;;;;;0.93;0.63;;;13.60;99.90;;;;;;5007962;28;20052;-83
2023/10/24 10:35:58;;;;;;;0.90;0.80;;;13.60;99.90;;;;;;5006130;28;20058;-80
2023/10/24 10:38:45;;;;;;;1.73;0.88;;;13.60;99.90;;;;;;5016143;28;20046;-81
2023/10/24 10:41:23;;;;;;;1.17;0.98;;;13.70;99.90;;;;;;5011172;28;20498;-81
2023/10/24 10:44:05;;;;;;;1.98;0.82;;;13.70;99.90;;;;;;5011706;28;20105;-82
2023/10/24 10:46:33;;;;;;;0.65;0.50;;;13.70;99.90;;;;;;5004618;28;20046;-81
2023/10/24 10:49:06;;;;;;;0.85;0.77;;;13.70;99.90;;;;;;5009731;28;20480;-81
2023/10/24 10:51:35;;;;;;;0.88;0.60;;;13.70;99.90;;;;;;5015863;28;20052;-81
2023/10/24 10:54:21;;;;;;;1.20;0.80;;;13.80;99.90;;;;;;5009213;28;20051;-81
2023/10/24 10:56:48;;;;;;;0.82;0.60;;;13.80;99.90;;;;;;5013527;28;20046;-81
2023/10/24 10:59:57;;;;;;;2.53;0.70;;;13.80;99.90;;;;;;5019952;28;20124;-81
2023/10/24 11:03:02;;;;;;;1.02;0.70;;;13.80;99.90;;;;;;5004962;28;20104;-81
2023/10/24 11:05:35;;;;;;;1.73;0.60;;;13.80;99.90;;;;;;5007390;28;20049;-81
2023/10/24 11:08:03;;;;;;;0.50;0.50;;;13.80;99.90;;;;;;5003932;28;20089;-81
2023/10/24 11:10:50;;;;;;;4.28;1.23;;;13.80;99.90;;;;;;5005969;28;20071;-81
2023/10/24 11:13:38;;;;;;;1.23;0.77;;;13.80;99.90;;;;;;5016866;28;20429;-82
2023/10/24 11:16:07;;;;;;;0.93;0.60;;;13.90;99.90;;;;;;5001238;28;20096;-81
2023/10/24 11:18:47;;;;;;;1.10;0.70;;;13.90;99.90;;;;;;5008605;28;20101;-81
2023/10/24 11:21:14;;;;;;;1.40;0.63;;;13.90;99.90;;;;;;5010997;28;20078;-81
2023/10/24 11:23:42;;;;;;;0.63;0.40;;;13.90;99.90;;;;;;5005504;28;20053;-81
2023/10/24 11:26:10;;;;;;;2.15;0.57;;;13.90;99.90;;;;;;5005942;28;20069;-80
2023/10/24 11:28:37;;;;;;;0.68;0.55;;;14.00;99.90;;;;;;5010844;28;20045;-81
2023/10/24 11:31:25;;;;;;;1.00;0.50;;;14.00;99.90;;;;;;4997411;28;20053;-80
2023/10/24 11:33:53;;;;;;;1.45;0.75;;;14.10;99.90;;;;;;5007701;28;20100;-81
2023/10/24 11:36:20;;;;;;;0.60;0.52;;;14.10;99.90;;;;;;5016734;28;20065;-81
2023/10/24 11:38:47;;;;;;;0.70;0.60;;;14.00;99.90;;;;;;5014608;28;20048;-81
2023/10/24 11:41:14;;;;;;;0.85;0.60;;;14.10;99.90;;;;;;5006679;28;20051;-81
2023/10/24 11:43:44;;;;;;;0.73;0.68;;;14.10;99.90;;;;;;5007776;28;20057;-82
2023/10/24 11:46:10;;;;;;;1.98;0.73;;;14.10;99.90;;;;;;5003660;28;20073;-81
2023/10/24 11:48:37;;;;;;;0.60;0.55;;;14.10;99.90;;;;;;5011342;28;20046;-81
2023/10/24 11:51:04;;;;;;;2.72;0.98;;;14.10;99.90;;;;;;5011314;28;20088;-80
2023/10/24 11:53:31;;;;;;;2.35;0.70;;;14.10;99.90;;;;;;5005092;28;20065;-81
2023/10/24 11:55:58;;;;;;;0.52;0.50;;;14.10;99.90;;;;;;5001830;28;20041;-80
2023/10/24 11:58:33;;;;;;;1.42;0.60;;;14.10;99.90;;;;;;5004998;28;20134;-80
2023/10/24 12:01:01;;;;;;;2.90;1.08;;;14.10;99.90;;;;;;5014426;28;20082;-81
2023/10/24 12:03:46;;;;;;;2.95;1.27;;;14.00;99.90;;;;;;5012887;28;20061;-80
2023/10/24 12:06:18;;;;;;;2.60;1.10;;;14.10;99.90;;;;;;5009678;28;20130;-81
2023/10/24 12:08:47;;;;;;;3.17;1.08;;;14.00;99.90;;;;;;5002641;28;20048;-81
2023/10/24 12:11:13;;;;;;;3.58;1.20;;;14.10;99.90;;;;;;5005376;28;20054;-81
2023/10/24 12:13:40;;;;;;;0.93;0.68;;;14.10;99.90;;;;;;5008675;28;20058;-81
2023/10/24 12:16:08;;;;;;;1.30;0.80;;;14.10;99.90;;;;;;5001719;28;20074;-82
2023/10/24 12:18:38;;;;;;;1.08;0.88;;;14.10;99.90;;;;;;5009291;28;20077;-81
2023/10/24 12:21:07;;;;;;;1.58;0.80;;;14.10;99.90;;;;;;5012976;28;20077;-81
2023/10/24 12:23:36;;;;;;;2.53;0.85;;;14.20;99.90;;;;;;5014179;28;20050;-81
2023/10/24 12:26:04;;;;;;;3.22;0.90;;;14.20;99.90;;;;;;5008611;28;20050;-79
2023/10/24 12:28:34;;;;;;;0.80;0.68;;;14.30;99.90;;;;;;5023450;28;20088;-82
2023/10/24 12:31:01;;;;;;;;;;;14.30;99.90;;;;;;5004756;28;20517;-80
2023/10/24 12:33:28;;;;;;;0.93;0.80;;;14.40;99.90;;;;;;5012206;28;19922;-82
2023/10/24 12:35:59;;;;;;;2.38;0.90;;;14.40;99.90;;;;;;5010882;28;20038;-81
2023/10/24 12:38:28;;;;;;;0.70;0.50;;;14.50;99.90;;;;;;5008986;28;20560;-81
2023/10/24 12:40:55;;;;;;;1.10;0.60;;;14.50;99.90;;;;;;5006154;28;20663;-81
2023/10/24 12:43:22;;;;;;;1.80;0.47;;;14.50;99.90;;;;;;5009102;28;20454;-81
2023/10/24 12:45:50;;;;;;;0.80;0.60;;;14.60;99.90;;;;;;5006828;28;20098;-81
2023/10/24 12:48:17;;;;;;;0.93;0.63;;;14.60;99.90;;;;;;5009276;28;20057;-81
2023/10/24 12:50:46;;;;;;;1.58;0.70;;;14.60;99.90;;;;;;5011504;28;20133;-81
2023/10/24 12:53:13;;;;;;;1.33;0.60;;;14.60;99.90;;;;;;5007985;28;20078;-81
2023/10/24 12:55:40;;;;;;;2.75;0.80;;;14.60;99.90;;;;;;5009393;28;20038;-81